Surface Preassure
0:00 UTC
12:00 UTC (Click for larger versions)
Andrewsfield Outlook

Current time:


  05:32:25pm (GMT)      05:32:25pm (UTC)


Headline: Clear and frosty tonight. Pleasant sunny spells Thursday.

This Evening and Tonight: It will be dry this evening and overnight, with long clear spells, and winds mainly light. This will allow temperatures to fall, with a widespread frost developing. Minimum Temperature -3C.

Thursday: A dry and fine day is forecast with long sunny spells. After a cold start temperatures will recover to give a pleasant feeling afternoon, with winds mainly light. Maximum Temperature 15C.

Outlook for Friday to Sunday: Continuing dry with pleasantly warm sunshine and variable cloud cover. Sometimes cooler on coasts with mist and onshore breezes. Frosts are still likely during nights, where skies are clear.

Nearby METAR/TAF

Stansted (EGSS)


Current conditions: VFR

METAR: EGSS 211720Z AUTO 05011KT 9999 BKN039 BKN047 11/02 Q1023

TAF: TAF EGSS 211658Z 2118/2224 05012KT 9999 SCT040

Southend (EGMC)


Current conditions: VFR

METAR: EGMC 211520Z 07015KT CAVOK 11/05 Q1022

TAF: TAF EGMC 211358Z 2115/2124 06014KT 9999 FEW040

RAF Wattisham (EGUW)


Current conditions: VFR

METAR: EGUW 211650Z 06013KT 9999 FEW040 10/01 Q1023 NOSIG RMK BLU BLU

TAF: TAF EGUW 211632Z 2118/2124 04010KT 9999 FEW025